createdAt,value
2022-09-01T00:01:28.383Z,20.11
2022-09-01T00:03:56.043Z,20.06
2022-09-01T00:06:23.887Z,20.07
2022-09-01T00:08:51.416Z,20.08
2022-09-01T00:11:18.761Z,20.07
2022-09-01T00:13:45.471Z,20.04
2022-09-01T00:16:14.153Z,20.06
2022-09-01T00:18:42.373Z,20.04
2022-09-01T00:21:10.182Z,19.99
2022-09-01T00:23:37.369Z,19.96
2022-09-01T00:26:04.918Z,19.94
2022-09-01T00:28:35.661Z,19.92
2022-09-01T00:31:02.969Z,19.93
2022-09-01T00:33:29.484Z,19.91
2022-09-01T00:35:56.360Z,19.89
2022-09-01T00:38:22.852Z,19.89
2022-09-01T00:40:50.039Z,19.87
2022-09-01T00:43:22.757Z,19.86
2022-09-01T00:45:51.842Z,19.88
2022-09-01T00:48:20.403Z,19.87
2022-09-01T00:50:49.530Z,19.87
2022-09-01T00:53:19.209Z,19.84
2022-09-01T00:55:45.787Z,19.85
2022-09-01T00:58:18.343Z,19.82
2022-09-01T01:00:49.637Z,19.81
2022-09-01T01:03:16.217Z,19.78
2022-09-01T01:05:46.715Z,19.78
2022-09-01T01:08:13.217Z,19.78
2022-09-01T01:10:42.195Z,19.74
2022-09-01T01:13:10.266Z,19.74
2022-09-01T01:15:36.934Z,19.75
2022-09-01T01:18:03.504Z,19.67
2022-09-01T01:20:50.339Z,19.64
2022-09-01T01:23:37.165Z,19.61
2022-09-01T01:26:05.470Z,19.57
2022-09-01T01:28:34.011Z,19.59
2022-09-01T01:31:23.028Z,19.57
2022-09-01T01:33:54.861Z,19.54
2022-09-01T01:36:27.041Z,19.55
2022-09-01T01:38:55.527Z,19.56
2022-09-01T01:41:24.165Z,19.56
2022-09-01T01:43:51.044Z,19.52
2022-09-01T01:46:19.090Z,19.50
2022-09-01T01:48:47.098Z,19.50
2022-09-01T01:51:17.483Z,19.47
2022-09-01T01:53:45.204Z,19.44
2022-09-01T01:56:11.687Z,19.42
2022-09-01T01:58:40.479Z,19.39
2022-09-01T02:01:12.583Z,19.38
2022-09-01T02:03:39.844Z,19.26
2022-09-01T02:06:10.152Z,19.22
2022-09-01T02:08:38.305Z,19.18
2022-09-01T02:11:06.065Z,19.13
2022-09-01T02:13:32.710Z,19.09
2022-09-01T02:16:01.108Z,19.08
2022-09-01T02:18:37.709Z,19.06
2022-09-01T02:21:12.772Z,19.02
2022-09-01T02:23:41.861Z,19.10
2022-09-01T02:26:18.515Z,19.14
2022-09-01T02:28:55.797Z,19.13
2022-09-01T02:31:27.875Z,19.06
2022-09-01T02:33:55.071Z,19.03
2022-09-01T02:36:22.299Z,19.00
2022-09-01T02:38:53.169Z,18.98
2022-09-01T02:41:23.035Z,18.91
2022-09-01T02:43:50.151Z,18.91
2022-09-01T02:46:16.867Z,18.88
2022-09-01T02:48:46.108Z,18.87
2022-09-01T02:51:15.574Z,18.82
2022-09-01T02:53:43.594Z,18.78
2022-09-01T02:56:14.123Z,18.79
2022-09-01T02:58:46.329Z,18.69
2022-09-01T03:01:15.015Z,18.69
2022-09-01T03:03:41.704Z,18.64
2022-09-01T03:06:10.203Z,18.67
2022-09-01T03:08:39.613Z,18.72
2022-09-01T03:11:13.270Z,18.71
2022-09-01T03:13:40.856Z,18.70
2022-09-01T03:16:08.163Z,18.67
2022-09-01T03:18:34.956Z,18.73
2022-09-01T03:21:02.429Z,18.74
2022-09-01T03:23:31.369Z,18.72
2022-09-01T03:25:58.379Z,18.68
2022-09-01T03:28:25.379Z,18.63
2022-09-01T03:30:55.574Z,18.65
2022-09-01T03:33:23.196Z,18.71
2022-09-01T03:35:50.033Z,18.68
2022-09-01T03:38:23.099Z,18.68
2022-09-01T03:40:52.719Z,18.66
2022-09-01T03:43:23.334Z,18.69
2022-09-01T03:45:49.986Z,18.70
2022-09-01T03:48:17.142Z,18.70
2022-09-01T03:50:47.144Z,18.68
2022-09-01T03:53:15.640Z,18.66
2022-09-01T03:55:45.074Z,18.65
2022-09-01T03:58:14.444Z,18.64
2022-09-01T04:00:48.784Z,18.60
2022-09-01T04:03:28.546Z,18.56
2022-09-01T04:05:55.895Z,18.53
2022-09-01T04:08:32.542Z,18.47
2022-09-01T04:11:00.691Z,18.36
2022-09-01T04:13:30.402Z,18.29
2022-09-01T04:15:57.652Z,18.31
2022-09-01T04:18:24.877Z,18.34
2022-09-01T04:20:56.822Z,18.32
2022-09-01T04:23:26.607Z,18.34
2022-09-01T04:25:56.569Z,18.33
2022-09-01T04:28:26.248Z,18.36
2022-09-01T04:30:55.887Z,18.31
2022-09-01T04:33:34.855Z,18.24
2022-09-01T04:36:02.857Z,18.21
2022-09-01T04:38:30.586Z,18.22
2022-09-01T04:41:00.070Z,18.24
2022-09-01T04:43:26.587Z,18.27
2022-09-01T04:45:53.782Z,18.25
2022-09-01T04:48:22.099Z,18.24
2022-09-01T04:50:51.945Z,18.22
2022-09-01T04:53:25.025Z,18.21
2022-09-01T04:55:55.397Z,18.17
2022-09-01T04:58:24.629Z,18.22
2022-09-01T05:00:55.904Z,18.29
2022-09-01T05:03:24.269Z,18.33
2022-09-01T05:06:17.604Z,18.27
2022-09-01T05:08:49.836Z,18.22
2022-09-01T05:11:37.539Z,18.18
2022-09-01T05:14:10.217Z,18.14
2022-09-01T05:16:37.788Z,18.12
2022-09-01T05:19:04.702Z,18.07
2022-09-01T05:21:37.629Z,18.03
2022-09-01T05:24:05.063Z,18.04
2022-09-01T05:26:34.609Z,18.10
2022-09-01T05:29:03.143Z,18.18
2022-09-01T05:31:37.836Z,18.24
2022-09-01T05:34:04.947Z,18.31
2022-09-01T05:36:33.288Z,18.33
2022-09-01T05:39:00.848Z,18.31
2022-09-01T05:41:28.475Z,18.34
2022-09-01T05:43:59.978Z,18.36
2022-09-01T05:46:28.186Z,18.46
2022-09-01T05:48:55.928Z,18.58
2022-09-01T05:51:43.379Z,18.74
2022-09-01T05:54:12.119Z,18.83
2022-09-01T05:56:43.631Z,18.96
2022-09-01T05:59:23.579Z,19.14
2022-09-01T06:01:52.908Z,19.32
2022-09-01T06:04:19.920Z,19.44
2022-09-01T06:07:06.573Z,19.53
2022-09-01T06:09:38.114Z,19.62
2022-09-01T06:12:06.530Z,19.68
2022-09-01T06:14:33.234Z,19.64
2022-09-01T06:17:00.943Z,19.48
2022-09-01T06:19:27.491Z,19.42
2022-09-01T06:21:56.779Z,19.43
2022-09-01T06:24:23.573Z,19.44
2022-09-01T06:26:51.013Z,19.52
2022-09-01T06:29:17.665Z,19.57
2022-09-01T06:31:51.744Z,19.68
2022-09-01T06:34:19.660Z,19.87
2022-09-01T06:36:48.444Z,20.06
2022-09-01T06:39:19.898Z,20.27
2022-09-01T06:41:53.122Z,20.45
2022-09-01T06:44:24.642Z,20.56
2022-09-01T06:46:59.896Z,20.70
2022-09-01T06:49:33.217Z,20.84
2022-09-01T06:52:01.300Z,20.99
2022-09-01T06:54:29.818Z,21.13
2022-09-01T06:56:57.535Z,21.25
2022-09-01T06:59:34.461Z,21.36
2022-09-01T07:02:04.829Z,21.53
2022-09-01T07:05:02.809Z,21.66
2022-09-01T07:14:14.519Z,21.86
2022-09-01T07:19:15.067Z,21.85
2022-09-01T07:22:08.243Z,21.86
2022-09-01T07:24:37.648Z,21.99
2022-09-01T07:27:50.602Z,22.23
2022-09-01T07:44:47.291Z,22.98
2022-09-01T07:47:55.462Z,22.90
2022-09-01T07:51:34.145Z,23.07
2022-09-01T07:53:12.629Z,23.22
2022-09-01T07:55:41.305Z,23.25
2022-09-01T07:58:09.506Z,23.37
2022-09-01T08:00:37.155Z,23.41
2022-09-01T08:03:07.075Z,23.34
2022-09-01T08:05:33.873Z,23.28
2022-09-01T08:08:01.476Z,23.22
2022-09-01T08:10:32.063Z,23.34
2022-09-01T08:12:58.884Z,23.49
2022-09-01T08:18:17.054Z,24.07
2022-09-01T08:20:47.727Z,24.54
2022-09-01T08:23:33.926Z,25.09
2022-09-01T08:26:04.784Z,25.35
2022-09-01T08:28:31.706Z,25.57
2022-09-01T08:31:00.218Z,25.69
2022-09-01T08:33:28.040Z,25.78
2022-09-01T08:35:55.494Z,25.83
2022-09-01T08:38:22.909Z,25.82
2022-09-01T08:40:56.071Z,25.72
2022-09-01T08:43:33.505Z,25.54
2022-09-01T08:46:27.139Z,25.15
2022-09-01T08:52:22.461Z,26.15
2022-09-01T08:54:56.211Z,29.95
2022-09-01T08:57:27.522Z,33.67
2022-09-01T09:00:23.319Z,36.77
2022-09-01T09:02:58.862Z,36.75
2022-09-01T09:05:28.520Z,38.01
2022-09-01T09:08:09.569Z,39.03
2022-09-01T09:10:48.116Z,39.97
2022-09-01T09:13:22.270Z,40.44
2022-09-01T09:15:52.076Z,41.35
2022-09-01T09:18:39.223Z,41.78
2022-09-01T09:21:18.087Z,42.07
2022-09-01T09:23:46.977Z,40.24
2022-09-01T09:26:27.218Z,39.61
2022-09-01T09:29:08.722Z,40.42
2022-09-01T09:33:08.948Z,41.66
2022-09-01T09:38:29.370Z,44.13
2022-09-01T09:41:18.980Z,45.98
2022-09-01T09:44:01.171Z,44.58
2022-09-01T09:46:44.352Z,45.69
2022-09-01T09:49:10.994Z,46.33
2022-09-01T09:51:38.624Z,45.08
2022-09-01T09:54:16.350Z,45.87
2022-09-01T09:56:46.626Z,47.25
2022-09-01T09:59:56.038Z,47.18
2022-09-01T10:02:23.163Z,48.31
2022-09-01T10:04:55.892Z,44.86
2022-09-01T10:07:34.735Z,40.69
2022-09-01T10:10:04.484Z,39.61
2022-09-01T10:12:32.071Z,41.71
2022-09-01T10:15:12.530Z,41.52
2022-09-01T10:17:45.342Z,40.12
2022-09-01T10:20:18.739Z,42.28
2022-09-01T10:22:48.562Z,44.11
2022-09-01T10:25:22.037Z,47.13
2022-09-01T10:27:59.840Z,48.40
2022-09-01T10:30:27.435Z,47.01
2022-09-01T10:33:07.001Z,43.08
2022-09-01T10:35:47.475Z,38.37
2022-09-01T10:38:22.913Z,36.29
2022-09-01T10:41:07.223Z,36.04
2022-09-01T10:43:41.097Z,35.95
2022-09-01T10:46:24.751Z,36.09
2022-09-01T10:49:03.195Z,36.78
2022-09-01T10:51:36.223Z,37.43
2022-09-01T10:54:05.914Z,37.29
2022-09-01T10:56:50.815Z,36.11
2022-09-01T10:59:40.265Z,34.62
2022-09-01T11:02:28.838Z,33.74
2022-09-01T11:04:58.269Z,38.25
2022-09-01T11:07:50.437Z,42.77
2022-09-01T11:10:32.749Z,46.01
2022-09-01T11:13:00.284Z,46.39
2022-09-01T11:15:40.431Z,43.58
2022-09-01T11:18:08.745Z,40.56
2022-09-01T11:20:39.845Z,41.64
2022-09-01T11:23:11.627Z,42.77
2022-09-01T11:25:44.454Z,45.01
2022-09-01T11:28:14.479Z,46.34
2022-09-01T11:30:45.209Z,45.41
2022-09-01T11:33:24.096Z,44.08
2022-09-01T11:35:58.707Z,45.52
2022-09-01T11:38:25.869Z,43.86
2022-09-01T11:40:56.699Z,44.26
2022-09-01T11:43:24.239Z,43.21
2022-09-01T11:45:56.724Z,43.55
2022-09-01T11:48:25.595Z,45.04
2022-09-01T11:50:59.765Z,44.65
2022-09-01T11:53:26.669Z,42.40
2022-09-01T11:55:55.993Z,39.92
2022-09-01T11:58:28.871Z,37.63
2022-09-01T12:00:56.782Z,36.43
2022-09-01T12:03:26.160Z,38.45
2022-09-01T12:06:01.217Z,38.41
2022-09-01T12:08:30.555Z,36.38
2022-09-01T12:11:04.975Z,34.75
2022-09-01T12:13:31.622Z,35.43
2022-09-01T12:16:17.441Z,38.04
2022-09-01T12:18:47.378Z,39.38
2022-09-01T12:21:21.091Z,38.38
2022-09-01T12:23:47.651Z,37.33
2022-09-01T12:26:34.409Z,36.63
2022-09-01T12:29:02.045Z,35.46
2022-09-01T12:31:28.698Z,34.13
2022-09-01T12:33:56.468Z,33.16
2022-09-01T12:36:23.780Z,32.97
2022-09-01T12:38:51.052Z,32.85
2022-09-01T12:41:24.675Z,32.48
2022-09-01T12:43:54.674Z,32.24
2022-09-01T12:46:42.334Z,32.18
2022-09-01T12:49:19.797Z,31.71
2022-09-01T12:51:48.586Z,30.75
2022-09-01T12:54:15.964Z,30.03
2022-09-01T12:56:48.134Z,30.01
2022-09-01T12:59:24.748Z,29.67
2022-09-01T13:02:21.193Z,29.57
2022-09-01T13:04:49.181Z,29.71
2022-09-01T13:07:17.001Z,29.85
2022-09-01T13:09:45.917Z,30.06
2022-09-01T13:12:20.379Z,30.39
2022-09-01T13:14:48.506Z,30.23
2022-09-01T13:17:15.934Z,30.42
2022-09-01T13:19:43.736Z,29.89
2022-09-01T13:22:10.852Z,29.63
2022-09-01T13:24:37.861Z,29.74
2022-09-01T13:27:21.028Z,29.71
2022-09-01T13:29:48.470Z,29.88
2022-09-01T13:32:19.303Z,29.74
2022-09-01T13:34:46.904Z,29.84
2022-09-01T13:37:13.428Z,30.27
2022-09-01T13:39:40.239Z,30.45
2022-09-01T13:42:06.932Z,30.60
2022-09-01T13:44:34.069Z,30.55
2022-09-01T13:47:27.672Z,30.55
2022-09-01T13:52:34.082Z,29.92
2022-09-01T13:55:01.597Z,29.31
2022-09-01T13:57:28.172Z,28.86
2022-09-01T14:00:02.544Z,28.84
2022-09-01T14:02:37.949Z,28.96
2022-09-01T14:05:04.639Z,29.38
2022-09-01T14:07:32.369Z,29.85
2022-09-01T14:09:59.388Z,29.71
2022-09-01T14:12:26.044Z,29.21
2022-09-01T14:17:39.564Z,29.31
2022-09-01T14:20:07.749Z,29.18
2022-09-01T14:22:38.317Z,29.17
2022-09-01T14:25:05.761Z,28.98
2022-09-01T14:27:32.291Z,29.20
2022-09-01T14:29:59.039Z,29.43
2022-09-01T14:32:27.052Z,29.62
2022-09-01T14:34:54.644Z,29.75
2022-09-01T14:37:21.504Z,29.78
2022-09-01T14:39:51.991Z,29.95
2022-09-01T14:42:19.708Z,30.06
2022-09-01T14:44:47.161Z,30.20
2022-09-01T14:47:19.452Z,30.06
2022-09-01T14:49:47.772Z,29.88
2022-09-01T14:52:14.411Z,29.95
2022-09-01T14:54:42.492Z,29.42
2022-09-01T14:59:55.634Z,28.83
2022-09-01T15:02:22.117Z,28.90
2022-09-01T15:04:48.800Z,29.13
2022-09-01T15:07:15.539Z,29.21
2022-09-01T15:09:42.532Z,29.28
2022-09-01T15:12:09.545Z,29.26
2022-09-01T15:14:36.852Z,29.30
2022-09-01T15:17:03.635Z,29.23
2022-09-01T15:19:30.262Z,29.35
2022-09-01T15:21:56.788Z,29.67
2022-09-01T15:24:23.414Z,29.77
2022-09-01T15:26:49.939Z,29.63
2022-09-01T15:29:16.438Z,29.42
2022-09-01T15:31:43.645Z,29.31
2022-09-01T15:34:11.117Z,29.34
2022-09-01T15:36:41.674Z,28.89
2022-09-01T15:39:09.189Z,28.51
2022-09-01T15:41:36.486Z,28.26
2022-09-01T15:44:07.066Z,28.00
2022-09-01T15:46:34.594Z,27.82
2022-09-01T15:49:06.007Z,27.78
2022-09-01T15:51:32.544Z,27.79
2022-09-01T15:54:00.734Z,27.87
2022-09-01T15:56:27.486Z,27.88
2022-09-01T15:59:02.193Z,27.86
2022-09-01T16:01:30.442Z,27.90
2022-09-01T16:03:57.514Z,27.97
2022-09-01T16:06:24.097Z,27.92
2022-09-01T16:08:50.971Z,27.81
2022-09-01T16:11:17.636Z,27.72
2022-09-01T16:13:44.270Z,27.68
2022-09-01T16:16:32.112Z,27.56
2022-09-01T16:19:02.132Z,27.47
2022-09-01T16:21:45.799Z,27.36
2022-09-01T16:24:13.224Z,27.35
2022-09-01T16:26:40.366Z,27.33
2022-09-01T16:29:15.085Z,27.33
2022-09-01T16:31:42.695Z,27.35
2022-09-01T16:34:18.170Z,27.25
2022-09-01T16:37:01.537Z,27.20
2022-09-01T16:39:39.883Z,27.12
2022-09-01T16:42:22.981Z,27.10
2022-09-01T16:44:56.151Z,27.04
2022-09-01T16:47:37.916Z,26.91
2022-09-01T16:50:15.140Z,26.61
2022-09-01T16:53:02.614Z,26.55
2022-09-01T16:55:41.519Z,26.46
2022-09-01T16:58:21.617Z,26.35
2022-09-01T17:00:57.221Z,26.16
2022-09-01T17:03:42.949Z,26.19
2022-09-01T17:06:15.793Z,26.12
2022-09-01T17:08:55.428Z,25.97
2022-09-01T17:11:27.177Z,25.89
2022-09-01T17:13:56.067Z,25.87
2022-09-01T17:16:26.922Z,25.86
2022-09-01T17:18:55.684Z,25.86
2022-09-01T17:21:25.682Z,25.87
2022-09-01T17:23:57.541Z,25.89
2022-09-01T17:26:26.226Z,25.98
2022-09-01T17:29:00.383Z,26.02
2022-09-01T17:31:46.088Z,25.91
2022-09-01T17:34:28.053Z,25.87
2022-09-01T17:37:32.654Z,25.80
2022-09-01T17:39:59.649Z,25.75
2022-09-01T17:42:30.201Z,25.74
2022-09-01T17:45:19.989Z,25.60
2022-09-01T17:47:52.999Z,25.44
2022-09-01T17:50:33.499Z,25.36
2022-09-01T17:53:10.901Z,25.22
2022-09-01T17:55:59.404Z,25.08
2022-09-01T17:58:46.161Z,24.97
2022-09-01T18:01:34.591Z,24.97
2022-09-01T18:04:13.372Z,24.95
2022-09-01T18:06:46.423Z,24.78
2022-09-01T18:09:15.443Z,24.71
2022-09-01T18:11:45.131Z,24.67
2022-09-01T18:14:15.784Z,24.60
2022-09-01T18:16:42.422Z,24.54
2022-09-01T18:19:16.438Z,24.46
2022-09-01T18:21:49.254Z,24.40
2022-09-01T18:24:19.154Z,24.44
2022-09-01T18:26:50.254Z,24.39
2022-09-01T18:29:17.256Z,24.36
2022-09-01T18:32:02.459Z,24.34
2022-09-01T18:34:48.841Z,24.32
2022-09-01T18:37:25.102Z,24.28
2022-09-01T18:40:13.347Z,24.26
2022-09-01T18:42:40.049Z,24.29
2022-09-01T18:45:25.557Z,24.24
2022-09-01T18:48:11.096Z,24.26
2022-09-01T18:51:00.302Z,24.26
2022-09-01T18:53:26.779Z,24.24
2022-09-01T18:56:08.539Z,24.22
2022-09-01T18:58:44.166Z,24.22
2022-09-01T19:01:13.824Z,24.14
2022-09-01T19:03:46.383Z,24.13
2022-09-01T19:06:37.883Z,24.11
2022-09-01T19:09:14.552Z,24.09
2022-09-01T19:11:41.093Z,24.05
2022-09-01T19:17:14.024Z,23.98
2022-09-01T19:19:40.534Z,23.93
2022-09-01T19:22:08.526Z,23.90
2022-09-01T19:24:40.931Z,23.86
2022-09-01T19:27:13.045Z,23.86
2022-09-01T19:29:45.193Z,23.84
2022-09-01T19:32:18.139Z,23.83
2022-09-01T19:34:56.652Z,23.77
2022-09-01T19:37:23.552Z,23.70
2022-09-01T19:39:54.157Z,23.69
2022-09-01T19:42:27.276Z,23.70
2022-09-01T19:44:56.853Z,23.70
2022-09-01T19:47:45.663Z,23.65
2022-09-01T19:50:32.694Z,23.63
2022-09-01T19:53:10.302Z,23.61
2022-09-01T19:55:56.184Z,23.61
2022-09-01T19:58:27.092Z,23.57
2022-09-01T20:00:58.261Z,23.55
2022-09-01T20:03:29.266Z,23.50
2022-09-01T20:06:06.495Z,23.49
2022-09-01T20:08:39.653Z,23.47
2022-09-01T20:11:15.386Z,23.43
2022-09-01T20:13:50.066Z,23.42
2022-09-01T20:16:26.648Z,23.40
2022-09-01T20:19:04.596Z,23.39
2022-09-01T20:21:31.743Z,23.36
2022-09-01T20:24:08.309Z,23.33
2022-09-01T20:26:55.000Z,23.30
2022-09-01T20:29:28.143Z,23.26
2022-09-01T20:31:56.859Z,23.23
2022-09-01T20:34:38.441Z,23.22
2022-09-01T20:37:18.208Z,23.19
2022-09-01T20:40:02.609Z,23.16
2022-09-01T20:42:31.426Z,23.07
2022-09-01T20:45:00.004Z,23.03
2022-09-01T20:47:27.795Z,23.05
2022-09-01T20:49:54.631Z,23.05
2022-09-01T20:52:38.397Z,23.07
2022-09-01T20:55:23.756Z,23.03
2022-09-01T20:57:50.301Z,22.98
2022-09-01T21:00:25.951Z,22.97
2022-09-01T21:03:01.698Z,22.93
2022-09-01T21:05:28.788Z,22.90
2022-09-01T21:08:08.348Z,22.88
2022-09-01T21:10:53.951Z,22.87
2022-09-01T21:13:25.088Z,22.87
2022-09-01T21:16:00.160Z,22.88
2022-09-01T21:18:29.738Z,22.89
2022-09-01T21:21:23.309Z,22.87
2022-09-01T21:23:49.950Z,22.90
2022-09-01T21:26:16.653Z,22.86
2022-09-01T21:28:48.045Z,22.87
2022-09-01T21:31:14.879Z,22.87
2022-09-01T21:33:41.503Z,22.88
2022-09-01T21:36:08.377Z,22.89
2022-09-01T21:38:35.604Z,22.87
2022-09-01T21:41:02.508Z,22.87
2022-09-01T21:43:31.455Z,22.85
2022-09-01T21:45:58.317Z,22.81
2022-09-01T21:48:24.952Z,22.76
2022-09-01T21:50:51.453Z,22.63
2022-09-01T21:53:18.113Z,22.59
2022-09-01T21:55:45.343Z,22.54
2022-09-01T21:58:11.917Z,22.50
2022-09-01T22:00:39.547Z,22.48
2022-09-01T22:03:07.066Z,22.47
2022-09-01T22:05:35.765Z,22.43
2022-09-01T22:08:02.600Z,22.38
2022-09-01T22:10:30.407Z,22.30
2022-09-01T22:12:59.120Z,22.25
2022-09-01T22:15:26.150Z,22.25
2022-09-01T22:17:53.288Z,22.25
2022-09-01T22:20:22.315Z,22.25
2022-09-01T22:22:49.143Z,22.23
2022-09-01T22:25:17.274Z,22.24
2022-09-01T22:27:43.782Z,22.21
2022-09-01T22:30:11.135Z,22.17
2022-09-01T22:32:37.907Z,22.12
2022-09-01T22:35:06.193Z,22.06
2022-09-01T22:37:32.897Z,21.96
2022-09-01T22:39:59.565Z,21.94
2022-09-01T22:42:26.109Z,21.91
2022-09-01T22:44:52.653Z,21.88
2022-09-01T22:47:19.275Z,21.89
2022-09-01T22:49:45.830Z,21.80
2022-09-01T22:52:12.611Z,21.69
2022-09-01T22:54:40.484Z,21.64
2022-09-01T22:57:07.051Z,21.58
2022-09-01T22:59:33.579Z,21.55
2022-09-01T23:02:01.802Z,21.48
2022-09-01T23:04:31.970Z,21.46
2022-09-01T23:06:58.653Z,21.49
2022-09-01T23:09:25.234Z,21.48
2022-09-01T23:11:51.874Z,21.36
2022-09-01T23:14:18.587Z,21.34
2022-09-01T23:16:45.410Z,21.35
2022-09-01T23:19:12.092Z,21.37
2022-09-01T23:21:38.844Z,21.35
2022-09-01T23:24:06.005Z,21.27
2022-09-01T23:26:32.547Z,21.23
2022-09-01T23:28:59.633Z,21.24
2022-09-01T23:31:28.059Z,21.21
2022-09-01T23:33:54.832Z,21.10
2022-09-01T23:36:22.370Z,20.99
2022-09-01T23:38:49.656Z,21.00
2022-09-01T23:41:18.491Z,21.02
2022-09-01T23:43:45.000Z,21.02
2022-09-01T23:46:25.148Z,21.05
2022-09-01T23:48:52.418Z,20.99
2022-09-01T23:51:19.514Z,20.90
2022-09-01T23:53:46.649Z,20.90
2022-09-01T23:56:14.903Z,20.91
2022-09-01T23:58:42.091Z,20.95
